sensor_id;sensor_type;location;lat;lon;timestamp;temperature;humidity
18160;DHT22;9205;52.032;4.314;2023-06-26T00:00:08;22.80;1.00
18160;DHT22;9205;52.032;4.314;2023-06-26T00:02:36;22.80;1.00
18160;DHT22;9205;52.032;4.314;2023-06-26T00:05:04;22.80;1.00
18160;DHT22;9205;52.032;4.314;2023-06-26T00:07:32;22.70;1.00
18160;DHT22;9205;52.032;4.314;2023-06-26T00:10:01;22.60;99.90
18160;DHT22;9205;52.032;4.314;2023-06-26T00:12:29;22.40;1.00
18160;DHT22;9205;52.032;4.314;2023-06-26T00:14:58;22.30;1.00
18160;DHT22;9205;52.032;4.314;2023-06-26T00:17:26;22.30;1.00
18160;DHT22;9205;52.032;4.314;2023-06-26T00:19:54;22.20;1.00
18160;DHT22;9205;52.032;4.314;2023-06-26T00:22:21;22.10;69.40
18160;DHT22;9205;52.032;4.314;2023-06-26T00:24:49;22.00;99.90
18160;DHT22;9205;52.032;4.314;2023-06-26T00:27:16;22.00;99.90
18160;DHT22;9205;52.032;4.314;2023-06-26T00:29:44;21.90;99.90
18160;DHT22;9205;52.032;4.314;2023-06-26T00:32:13;21.80;1.00
18160;DHT22;9205;52.032;4.314;2023-06-26T00:34:40;21.90;1.00
18160;DHT22;9205;52.032;4.314;2023-06-26T00:37:08;21.80;1.00
18160;DHT22;9205;52.032;4.314;2023-06-26T00:39:35;21.80;1.00
18160;DHT22;9205;52.032;4.314;2023-06-26T00:42:03;21.80;1.00
18160;DHT22;9205;52.032;4.314;2023-06-26T00:44:30;21.70;1.00
18160;DHT22;9205;52.032;4.314;2023-06-26T00:46:58;21.70;99.90
18160;DHT22;9205;52.032;4.314;2023-06-26T00:49:27;21.70;97.70
18160;DHT22;9205;52.032;4.314;2023-06-26T00:51:56;21.70;99.90
18160;DHT22;9205;52.032;4.314;2023-06-26T00:54:24;21.70;99.90
18160;DHT22;9205;52.032;4.314;2023-06-26T00:56:51;21.70;99.90
18160;DHT22;9205;52.032;4.314;2023-06-26T00:59:19;21.70;99.90
18160;DHT22;9205;52.032;4.314;2023-06-26T01:01:47;21.70;99.90
18160;DHT22;9205;52.032;4.314;2023-06-26T01:04:15;21.70;99.90
18160;DHT22;9205;52.032;4.314;2023-06-26T01:06:49;21.60;1.00
18160;DHT22;9205;52.032;4.314;2023-06-26T01:09:18;21.50;1.00
18160;DHT22;9205;52.032;4.314;2023-06-26T01:11:48;21.40;1.00
18160;DHT22;9205;52.032;4.314;2023-06-26T01:14:17;21.40;1.00
18160;DHT22;9205;52.032;4.314;2023-06-26T01:16:45;21.40;1.00
18160;DHT22;9205;52.032;4.314;2023-06-26T01:19:19;21.40;1.00
18160;DHT22;9205;52.032;4.314;2023-06-26T01:21:58;21.30;1.00
18160;DHT22;9205;52.032;4.314;2023-06-26T01:24:34;21.30;1.00
18160;DHT22;9205;52.032;4.314;2023-06-26T01:27:08;21.40;1.00
18160;DHT22;9205;52.032;4.314;2023-06-26T01:29:38;21.30;1.00
18160;DHT22;9205;52.032;4.314;2023-06-26T01:32:10;21.20;1.00
18160;DHT22;9205;52.032;4.314;2023-06-26T01:34:40;21.20;10.10
18160;DHT22;9205;52.032;4.314;2023-06-26T01:37:09;21.20;52.70
18160;DHT22;9205;52.032;4.314;2023-06-26T01:39:36;21.20;99.90
18160;DHT22;9205;52.032;4.314;2023-06-26T01:42:04;21.20;99.90
18160;DHT22;9205;52.032;4.314;2023-06-26T01:44:36;21.00;99.90
18160;DHT22;9205;52.032;4.314;2023-06-26T01:47:10;21.00;99.90
18160;DHT22;9205;52.032;4.314;2023-06-26T01:49:47;21.00;99.90
18160;DHT22;9205;52.032;4.314;2023-06-26T01:52:21;20.90;99.90
18160;DHT22;9205;52.032;4.314;2023-06-26T01:54:57;20.90;99.90
18160;DHT22;9205;52.032;4.314;2023-06-26T01:57:30;20.90;99.90
18160;DHT22;9205;52.032;4.314;2023-06-26T02:00:02;20.80;99.90
18160;DHT22;9205;52.032;4.314;2023-06-26T02:02:40;20.80;1.00
18160;DHT22;9205;52.032;4.314;2023-06-26T02:05:08;20.80;1.00
18160;DHT22;9205;52.032;4.314;2023-06-26T02:07:36;20.80;1.00
18160;DHT22;9205;52.032;4.314;2023-06-26T02:10:05;20.70;1.00
18160;DHT22;9205;52.032;4.314;2023-06-26T02:12:34;20.60;1.00
18160;DHT22;9205;52.032;4.314;2023-06-26T02:15:04;20.50;1.00
18160;DHT22;9205;52.032;4.314;2023-06-26T02:17:33;20.50;1.00
18160;DHT22;9205;52.032;4.314;2023-06-26T02:20:01;20.50;1.00
18160;DHT22;9205;52.032;4.314;2023-06-26T02:22:31;20.50;1.00
18160;DHT22;9205;52.032;4.314;2023-06-26T02:24:58;20.50;1.00
18160;DHT22;9205;52.032;4.314;2023-06-26T02:27:26;20.50;1.00
18160;DHT22;9205;52.032;4.314;2023-06-26T02:29:53;20.50;1.00
18160;DHT22;9205;52.032;4.314;2023-06-26T02:32:22;20.40;1.00
18160;DHT22;9205;52.032;4.314;2023-06-26T02:34:50;20.30;1.00
18160;DHT22;9205;52.032;4.314;2023-06-26T02:37:18;20.20;1.00
18160;DHT22;9205;52.032;4.314;2023-06-26T02:39:46;20.00;1.00
18160;DHT22;9205;52.032;4.314;2023-06-26T02:42:13;20.00;1.00
18160;DHT22;9205;52.032;4.314;2023-06-26T02:44:41;20.00;1.00
18160;DHT22;9205;52.032;4.314;2023-06-26T02:47:08;19.90;1.00
18160;DHT22;9205;52.032;4.314;2023-06-26T02:49:41;19.80;1.00
18160;DHT22;9205;52.032;4.314;2023-06-26T02:52:09;19.80;1.00
18160;DHT22;9205;52.032;4.314;2023-06-26T02:54:36;19.80;1.00
18160;DHT22;9205;52.032;4.314;2023-06-26T02:57:04;19.80;1.00
18160;DHT22;9205;52.032;4.314;2023-06-26T02:59:33;19.80;1.00
18160;DHT22;9205;52.032;4.314;2023-06-26T03:02:01;19.80;1.00
18160;DHT22;9205;52.032;4.314;2023-06-26T03:04:41;19.70;1.00
18160;DHT22;9205;52.032;4.314;2023-06-26T03:07:11;19.70;1.00
18160;DHT22;9205;52.032;4.314;2023-06-26T03:09:40;19.70;1.00
18160;DHT22;9205;52.032;4.314;2023-06-26T03:12:09;19.80;1.00
18160;DHT22;9205;52.032;4.314;2023-06-26T03:14:36;19.70;1.00
18160;DHT22;9205;52.032;4.314;2023-06-26T03:17:07;19.60;1.00
18160;DHT22;9205;52.032;4.314;2023-06-26T03:19:36;19.60;1.00
18160;DHT22;9205;52.032;4.314;2023-06-26T03:22:19;19.50;1.00
18160;DHT22;9205;52.032;4.314;2023-06-26T03:24:48;19.60;1.00
18160;DHT22;9205;52.032;4.314;2023-06-26T03:27:15;19.60;1.00
18160;DHT22;9205;52.032;4.314;2023-06-26T03:29:43;19.50;1.00
18160;DHT22;9205;52.032;4.314;2023-06-26T03:32:12;19.40;1.00
18160;DHT22;9205;52.032;4.314;2023-06-26T03:34:39;19.50;1.00
18160;DHT22;9205;52.032;4.314;2023-06-26T03:37:07;19.50;1.00
18160;DHT22;9205;52.032;4.314;2023-06-26T03:39:36;19.50;1.00
18160;DHT22;9205;52.032;4.314;2023-06-26T03:42:03;19.50;1.00
18160;DHT22;9205;52.032;4.314;2023-06-26T03:44:32;19.30;1.00
18160;DHT22;9205;52.032;4.314;2023-06-26T03:46:59;19.40;1.00
18160;DHT22;9205;52.032;4.314;2023-06-26T03:49:27;19.40;1.00
18160;DHT22;9205;52.032;4.314;2023-06-26T03:51:54;19.40;1.00
18160;DHT22;9205;52.032;4.314;2023-06-26T03:54:22;19.40;1.00
18160;DHT22;9205;52.032;4.314;2023-06-26T03:56:50;19.30;1.00
18160;DHT22;9205;52.032;4.314;2023-06-26T03:59:18;19.30;1.00
18160;DHT22;9205;52.032;4.314;2023-06-26T04:01:45;19.40;1.00
18160;DHT22;9205;52.032;4.314;2023-06-26T04:04:13;19.20;1.00
18160;DHT22;9205;52.032;4.314;2023-06-26T04:06:40;19.40;1.00
18160;DHT22;9205;52.032;4.314;2023-06-26T04:09:08;19.50;1.00
18160;DHT22;9205;52.032;4.314;2023-06-26T04:11:36;19.50;1.00
18160;DHT22;9205;52.032;4.314;2023-06-26T04:14:05;19.50;1.00
18160;DHT22;9205;52.032;4.314;2023-06-26T04:16:35;19.40;1.00
18160;DHT22;9205;52.032;4.314;2023-06-26T04:19:02;19.40;1.00
18160;DHT22;9205;52.032;4.314;2023-06-26T04:21:30;19.40;1.00
18160;DHT22;9205;52.032;4.314;2023-06-26T04:23:58;19.40;1.00
18160;DHT22;9205;52.032;4.314;2023-06-26T04:26:29;19.40;1.00
18160;DHT22;9205;52.032;4.314;2023-06-26T04:28:57;19.20;1.00
18160;DHT22;9205;52.032;4.314;2023-06-26T04:31:26;19.30;1.00
18160;DHT22;9205;52.032;4.314;2023-06-26T04:33:54;19.40;1.00
18160;DHT22;9205;52.032;4.314;2023-06-26T04:36:21;19.40;1.00
18160;DHT22;9205;52.032;4.314;2023-06-26T04:38:49;19.30;1.00
18160;DHT22;9205;52.032;4.314;2023-06-26T04:41:16;19.30;1.00
18160;DHT22;9205;52.032;4.314;2023-06-26T04:43:44;19.20;1.00
18160;DHT22;9205;52.032;4.314;2023-06-26T04:46:11;19.20;1.00
18160;DHT22;9205;52.032;4.314;2023-06-26T04:48:40;19.30;1.00
18160;DHT22;9205;52.032;4.314;2023-06-26T04:51:10;19.40;1.00
18160;DHT22;9205;52.032;4.314;2023-06-26T04:53:37;19.40;1.00
18160;DHT22;9205;52.032;4.314;2023-06-26T04:56:05;19.40;1.00
18160;DHT22;9205;52.032;4.314;2023-06-26T04:58:32;19.50;1.00
18160;DHT22;9205;52.032;4.314;2023-06-26T05:01:00;19.40;1.00
18160;DHT22;9205;52.032;4.314;2023-06-26T05:03:27;19.30;1.00
18160;DHT22;9205;52.032;4.314;2023-06-26T05:05:56;19.40;1.00
18160;DHT22;9205;52.032;4.314;2023-06-26T05:08:24;19.30;1.00
18160;DHT22;9205;52.032;4.314;2023-06-26T05:10:53;19.30;1.00
18160;DHT22;9205;52.032;4.314;2023-06-26T05:13:23;19.30;1.00
18160;DHT22;9205;52.032;4.314;2023-06-26T05:15:52;19.10;1.00
18160;DHT22;9205;52.032;4.314;2023-06-26T05:18:21;19.10;1.00
18160;DHT22;9205;52.032;4.314;2023-06-26T05:20:50;19.20;1.00
18160;DHT22;9205;52.032;4.314;2023-06-26T05:23:19;19.30;1.00
18160;DHT22;9205;52.032;4.314;2023-06-26T05:25:48;19.20;99.90
18160;DHT22;9205;52.032;4.314;2023-06-26T05:28:16;19.30;99.90
18160;DHT22;9205;52.032;4.314;2023-06-26T05:30:44;19.30;99.90
18160;DHT22;9205;52.032;4.314;2023-06-26T05:33:14;19.20;99.90
18160;DHT22;9205;52.032;4.314;2023-06-26T05:35:45;19.20;4.90
18160;DHT22;9205;52.032;4.314;2023-06-26T05:38:15;19.10;1.00
18160;DHT22;9205;52.032;4.314;2023-06-26T05:40:44;19.00;1.00
18160;DHT22;9205;52.032;4.314;2023-06-26T05:43:13;19.00;1.00
18160;DHT22;9205;52.032;4.314;2023-06-26T05:45:40;19.10;1.00
18160;DHT22;9205;52.032;4.314;2023-06-26T05:48:09;18.90;1.00
18160;DHT22;9205;52.032;4.314;2023-06-26T05:50:37;18.90;1.00
18160;DHT22;9205;52.032;4.314;2023-06-26T05:53:08;18.70;1.00
18160;DHT22;9205;52.032;4.314;2023-06-26T05:55:36;18.70;1.00
18160;DHT22;9205;52.032;4.314;2023-06-26T05:58:07;18.70;99.90
18160;DHT22;9205;52.032;4.314;2023-06-26T06:00:37;18.80;99.90
18160;DHT22;9205;52.032;4.314;2023-06-26T06:03:06;18.70;99.90
18160;DHT22;9205;52.032;4.314;2023-06-26T06:05:36;18.50;99.90
18160;DHT22;9205;52.032;4.314;2023-06-26T06:08:06;18.50;99.90
18160;DHT22;9205;52.032;4.314;2023-06-26T06:10:34;18.60;1.00
18160;DHT22;9205;52.032;4.314;2023-06-26T06:13:07;18.50;99.90
18160;DHT22;9205;52.032;4.314;2023-06-26T06:15:35;18.50;1.00
18160;DHT22;9205;52.032;4.314;2023-06-26T06:18:03;18.80;1.00
18160;DHT22;9205;52.032;4.314;2023-06-26T06:20:30;18.90;1.00
18160;DHT22;9205;52.032;4.314;2023-06-26T06:22:58;18.80;1.00
18160;DHT22;9205;52.032;4.314;2023-06-26T06:25:25;18.70;1.00
18160;DHT22;9205;52.032;4.314;2023-06-26T06:27:52;18.70;1.00
18160;DHT22;9205;52.032;4.314;2023-06-26T06:30:21;18.60;1.00
18160;DHT22;9205;52.032;4.314;2023-06-26T06:32:49;18.60;1.00
18160;DHT22;9205;52.032;4.314;2023-06-26T06:35:18;18.70;1.00
18160;DHT22;9205;52.032;4.314;2023-06-26T06:37:46;18.60;99.90
18160;DHT22;9205;52.032;4.314;2023-06-26T06:40:14;18.70;99.90
18160;DHT22;9205;52.032;4.314;2023-06-26T06:42:42;18.60;99.90
18160;DHT22;9205;52.032;4.314;2023-06-26T06:45:10;18.50;99.90
18160;DHT22;9205;52.032;4.314;2023-06-26T06:47:41;18.30;99.90
18160;DHT22;9205;52.032;4.314;2023-06-26T06:50:09;18.30;99.90
18160;DHT22;9205;52.032;4.314;2023-06-26T06:52:37;18.30;99.90
18160;DHT22;9205;52.032;4.314;2023-06-26T06:55:07;18.40;99.90
18160;DHT22;9205;52.032;4.314;2023-06-26T06:57:36;18.50;99.90
18160;DHT22;9205;52.032;4.314;2023-06-26T07:00:07;18.50;2.60
18160;DHT22;9205;52.032;4.314;2023-06-26T07:02:37;18.50;99.90
18160;DHT22;9205;52.032;4.314;2023-06-26T07:05:06;18.60;35.10
18160;DHT22;9205;52.032;4.314;2023-06-26T07:07:36;18.50;1.00
18160;DHT22;9205;52.032;4.314;2023-06-26T07:10:05;18.50;1.00
18160;DHT22;9205;52.032;4.314;2023-06-26T07:12:35;18.60;64.10
18160;DHT22;9205;52.032;4.314;2023-06-26T07:15:04;18.80;1.00
18160;DHT22;9205;52.032;4.314;2023-06-26T07:17:33;18.80;1.00
18160;DHT22;9205;52.032;4.314;2023-06-26T07:20:04;18.70;1.00
18160;DHT22;9205;52.032;4.314;2023-06-26T07:22:34;18.80;1.00
18160;DHT22;9205;52.032;4.314;2023-06-26T07:25:01;18.70;1.00
18160;DHT22;9205;52.032;4.314;2023-06-26T07:27:29;18.60;1.00
18160;DHT22;9205;52.032;4.314;2023-06-26T07:29:59;18.60;1.00
18160;DHT22;9205;52.032;4.314;2023-06-26T07:32:26;18.60;1.00
18160;DHT22;9205;52.032;4.314;2023-06-26T07:34:54;18.70;1.00
18160;DHT22;9205;52.032;4.314;2023-06-26T07:37:23;18.80;1.00
18160;DHT22;9205;52.032;4.314;2023-06-26T07:39:50;18.90;1.00
18160;DHT22;9205;52.032;4.314;2023-06-26T07:42:18;18.90;1.00
18160;DHT22;9205;52.032;4.314;2023-06-26T07:44:45;18.70;1.00
18160;DHT22;9205;52.032;4.314;2023-06-26T07:47:12;18.80;1.00
18160;DHT22;9205;52.032;4.314;2023-06-26T07:49:40;18.80;1.00
18160;DHT22;9205;52.032;4.314;2023-06-26T07:52:07;18.70;1.00
18160;DHT22;9205;52.032;4.314;2023-06-26T07:54:38;18.70;1.00
18160;DHT22;9205;52.032;4.314;2023-06-26T07:57:06;18.70;1.00
18160;DHT22;9205;52.032;4.314;2023-06-26T07:59:34;18.50;1.00
18160;DHT22;9205;52.032;4.314;2023-06-26T08:02:07;18.80;1.00
18160;DHT22;9205;52.032;4.314;2023-06-26T08:04:35;18.90;1.00
18160;DHT22;9205;52.032;4.314;2023-06-26T08:07:03;19.00;1.00
18160;DHT22;9205;52.032;4.314;2023-06-26T08:09:32;18.90;1.00
18160;DHT22;9205;52.032;4.314;2023-06-26T08:12:02;19.00;1.00
18160;DHT22;9205;52.032;4.314;2023-06-26T08:14:38;18.90;1.00
18160;DHT22;9205;52.032;4.314;2023-06-26T08:17:05;19.00;1.00
18160;DHT22;9205;52.032;4.314;2023-06-26T08:19:33;19.10;1.00
18160;DHT22;9205;52.032;4.314;2023-06-26T08:22:00;18.80;99.90
18160;DHT22;9205;52.032;4.314;2023-06-26T08:24:28;18.80;1.00
18160;DHT22;9205;52.032;4.314;2023-06-26T08:26:56;19.00;1.00
18160;DHT22;9205;52.032;4.314;2023-06-26T08:29:26;18.90;1.00
18160;DHT22;9205;52.032;4.314;2023-06-26T08:31:54;19.00;99.90
18160;DHT22;9205;52.032;4.314;2023-06-26T08:34:24;19.00;99.90
18160;DHT22;9205;52.032;4.314;2023-06-26T08:36:52;19.20;99.90
18160;DHT22;9205;52.032;4.314;2023-06-26T08:39:24;19.40;99.90
18160;DHT22;9205;52.032;4.314;2023-06-26T08:41:53;19.40;99.90
18160;DHT22;9205;52.032;4.314;2023-06-26T08:44:20;19.50;99.90
18160;DHT22;9205;52.032;4.314;2023-06-26T08:46:51;19.40;99.90
18160;DHT22;9205;52.032;4.314;2023-06-26T08:49:29;19.20;99.90
18160;DHT22;9205;52.032;4.314;2023-06-26T08:52:09;19.30;99.90
18160;DHT22;9205;52.032;4.314;2023-06-26T08:54:45;19.40;99.90
18160;DHT22;9205;52.032;4.314;2023-06-26T08:57:18;19.20;99.90
18160;DHT22;9205;52.032;4.314;2023-06-26T08:59:47;19.20;99.90
18160;DHT22;9205;52.032;4.314;2023-06-26T09:02:17;19.30;99.90
18160;DHT22;9205;52.032;4.314;2023-06-26T09:04:47;19.30;99.90
18160;DHT22;9205;52.032;4.314;2023-06-26T09:07:15;19.20;99.90
18160;DHT22;9205;52.032;4.314;2023-06-26T09:09:44;19.40;99.90
18160;DHT22;9205;52.032;4.314;2023-06-26T09:12:13;19.50;99.90
18160;DHT22;9205;52.032;4.314;2023-06-26T09:14:41;19.50;99.90
18160;DHT22;9205;52.032;4.314;2023-06-26T09:17:09;19.50;99.90
18160;DHT22;9205;52.032;4.314;2023-06-26T09:19:40;19.40;99.90
18160;DHT22;9205;52.032;4.314;2023-06-26T09:22:13;19.50;99.90
18160;DHT22;9205;52.032;4.314;2023-06-26T09:24:42;19.50;99.90
18160;DHT22;9205;52.032;4.314;2023-06-26T09:27:11;19.60;67.70
18160;DHT22;9205;52.032;4.314;2023-06-26T09:29:38;19.20;1.00
18160;DHT22;9205;52.032;4.314;2023-06-26T09:32:08;19.30;1.00
18160;DHT22;9205;52.032;4.314;2023-06-26T09:34:36;19.30;1.00
18160;DHT22;9205;52.032;4.314;2023-06-26T09:37:06;19.40;1.00
18160;DHT22;9205;52.032;4.314;2023-06-26T09:39:37;19.40;1.00
18160;DHT22;9205;52.032;4.314;2023-06-26T09:42:05;19.50;1.00
18160;DHT22;9205;52.032;4.314;2023-06-26T09:44:33;19.50;1.00
18160;DHT22;9205;52.032;4.314;2023-06-26T09:47:01;19.50;99.90
18160;DHT22;9205;52.032;4.314;2023-06-26T09:49:30;19.80;1.00
18160;DHT22;9205;52.032;4.314;2023-06-26T09:52:02;19.80;99.90
18160;DHT22;9205;52.032;4.314;2023-06-26T09:54:33;19.70;1.00
18160;DHT22;9205;52.032;4.314;2023-06-26T09:57:07;19.40;1.00
18160;DHT22;9205;52.032;4.314;2023-06-26T09:59:35;19.40;1.00
18160;DHT22;9205;52.032;4.314;2023-06-26T10:02:04;19.30;1.00
18160;DHT22;9205;52.032;4.314;2023-06-26T10:04:32;19.20;2.00
18160;DHT22;9205;52.032;4.314;2023-06-26T10:07:02;19.20;1.00
18160;DHT22;9205;52.032;4.314;2023-06-26T10:09:35;19.20;1.00
18160;DHT22;9205;52.032;4.314;2023-06-26T10:12:08;19.30;1.00
18160;DHT22;9205;52.032;4.314;2023-06-26T10:14:45;19.40;99.90
18160;DHT22;9205;52.032;4.314;2023-06-26T10:17:16;19.60;13.60
18160;DHT22;9205;52.032;4.314;2023-06-26T10:19:47;19.70;1.00
18160;DHT22;9205;52.032;4.314;2023-06-26T10:22:17;19.50;1.00
18160;DHT22;9205;52.032;4.314;2023-06-26T10:24:49;19.60;1.00
18160;DHT22;9205;52.032;4.314;2023-06-26T10:27:20;19.70;1.00
18160;DHT22;9205;52.032;4.314;2023-06-26T10:30:02;19.70;1.00
18160;DHT22;9205;52.032;4.314;2023-06-26T10:32:32;19.80;1.00
18160;DHT22;9205;52.032;4.314;2023-06-26T10:35:00;20.00;1.00
18160;DHT22;9205;52.032;4.314;2023-06-26T10:37:44;20.00;1.00
18160;DHT22;9205;52.032;4.314;2023-06-26T10:40:17;20.10;99.90
18160;DHT22;9205;52.032;4.314;2023-06-26T10:42:48;19.90;99.90
18160;DHT22;9205;52.032;4.314;2023-06-26T10:45:19;20.30;1.00
18160;DHT22;9205;52.032;4.314;2023-06-26T10:47:48;20.30;99.90
18160;DHT22;9205;52.032;4.314;2023-06-26T10:50:21;20.50;99.90
18160;DHT22;9205;52.032;4.314;2023-06-26T10:53:10;20.60;99.90
18160;DHT22;9205;52.032;4.314;2023-06-26T10:55:48;20.30;1.00
18160;DHT22;9205;52.032;4.314;2023-06-26T10:58:28;20.60;1.00
18160;DHT22;9205;52.032;4.314;2023-06-26T11:01:19;21.00;1.00
18160;DHT22;9205;52.032;4.314;2023-06-26T11:03:49;21.00;1.00
18160;DHT22;9205;52.032;4.314;2023-06-26T11:06:28;21.00;1.00
18160;DHT22;9205;52.032;4.314;2023-06-26T11:09:08;21.00;1.00
18160;DHT22;9205;52.032;4.314;2023-06-26T11:11:58;21.20;1.00
18160;DHT22;9205;52.032;4.314;2023-06-26T11:14:31;21.00;1.00
18160;DHT22;9205;52.032;4.314;2023-06-26T11:17:02;20.90;1.00
18160;DHT22;9205;52.032;4.314;2023-06-26T11:19:31;20.90;99.90
18160;DHT22;9205;52.032;4.314;2023-06-26T11:22:01;21.20;1.00
18160;DHT22;9205;52.032;4.314;2023-06-26T11:24:30;21.70;1.00
18160;DHT22;9205;52.032;4.314;2023-06-26T11:27:04;22.20;1.00
18160;DHT22;9205;52.032;4.314;2023-06-26T11:29:32;22.30;1.00
18160;DHT22;9205;52.032;4.314;2023-06-26T11:32:02;22.60;1.00
18160;DHT22;9205;52.032;4.314;2023-06-26T11:34:33;22.60;1.00
18160;DHT22;9205;52.032;4.314;2023-06-26T11:37:03;22.80;1.00
18160;DHT22;9205;52.032;4.314;2023-06-26T11:39:34;22.80;1.00
18160;DHT22;9205;52.032;4.314;2023-06-26T11:42:06;23.10;1.00
18160;DHT22;9205;52.032;4.314;2023-06-26T11:44:40;22.80;99.90
18160;DHT22;9205;52.032;4.314;2023-06-26T11:47:13;23.00;99.90
18160;DHT22;9205;52.032;4.314;2023-06-26T11:49:44;23.20;99.90
18160;DHT22;9205;52.032;4.314;2023-06-26T11:52:13;23.20;99.90
18160;DHT22;9205;52.032;4.314;2023-06-26T11:54:42;22.90;99.90
18160;DHT22;9205;52.032;4.314;2023-06-26T11:57:15;22.40;99.90
18160;DHT22;9205;52.032;4.314;2023-06-26T12:00:10;22.50;99.90
18160;DHT22;9205;52.032;4.314;2023-06-26T12:02:43;22.30;99.90
18160;DHT22;9205;52.032;4.314;2023-06-26T12:05:12;21.50;99.90
18160;DHT22;9205;52.032;4.314;2023-06-26T12:07:41;21.60;99.90
18160;DHT22;9205;52.032;4.314;2023-06-26T12:10:10;22.10;1.00
18160;DHT22;9205;52.032;4.314;2023-06-26T12:12:40;22.20;1.00
18160;DHT22;9205;52.032;4.314;2023-06-26T12:15:10;21.80;1.00
18160;DHT22;9205;52.032;4.314;2023-06-26T12:17:42;21.80;1.00
18160;DHT22;9205;52.032;4.314;2023-06-26T12:20:19;22.00;1.00
18160;DHT22;9205;52.032;4.314;2023-06-26T12:22:48;22.40;1.00
18160;DHT22;9205;52.032;4.314;2023-06-26T12:25:21;22.80;1.00
18160;DHT22;9205;52.032;4.314;2023-06-26T12:27:51;23.00;1.00
18160;DHT22;9205;52.032;4.314;2023-06-26T12:30:19;22.60;99.90
18160;DHT22;9205;52.032;4.314;2023-06-26T12:32:47;22.90;1.00
18160;DHT22;9205;52.032;4.314;2023-06-26T12:35:15;23.00;99.90
18160;DHT22;9205;52.032;4.314;2023-06-26T12:37:43;23.10;99.90
18160;DHT22;9205;52.032;4.314;2023-06-26T12:40:18;22.80;99.90
18160;DHT22;9205;52.032;4.314;2023-06-26T12:42:47;22.60;99.90
18160;DHT22;9205;52.032;4.314;2023-06-26T12:45:25;22.30;99.90
18160;DHT22;9205;52.032;4.314;2023-06-26T12:47:53;22.40;99.90
18160;DHT22;9205;52.032;4.314;2023-06-26T12:50:25;22.50;99.90
18160;DHT22;9205;52.032;4.314;2023-06-26T12:52:52;22.90;99.90
18160;DHT22;9205;52.032;4.314;2023-06-26T12:55:20;23.10;99.90
18160;DHT22;9205;52.032;4.314;2023-06-26T12:57:48;23.10;99.90
18160;DHT22;9205;52.032;4.314;2023-06-26T13:00:18;22.80;99.90
18160;DHT22;9205;52.032;4.314;2023-06-26T13:02:48;22.90;99.90
18160;DHT22;9205;52.032;4.314;2023-06-26T13:05:19;23.00;99.90
18160;DHT22;9205;52.032;4.314;2023-06-26T13:07:47;23.10;99.90
18160;DHT22;9205;52.032;4.314;2023-06-26T13:10:14;23.20;99.90
18160;DHT22;9205;52.032;4.314;2023-06-26T13:12:42;23.00;99.90
18160;DHT22;9205;52.032;4.314;2023-06-26T13:15:12;23.10;99.90
18160;DHT22;9205;52.032;4.314;2023-06-26T13:17:39;23.20;14.50
18160;DHT22;9205;52.032;4.314;2023-06-26T13:20:10;23.20;13.10
18160;DHT22;9205;52.032;4.314;2023-06-26T13:22:39;23.50;1.00
18160;DHT22;9205;52.032;4.314;2023-06-26T13:25:07;23.60;1.00
18160;DHT22;9205;52.032;4.314;2023-06-26T13:27:35;23.40;1.00
18160;DHT22;9205;52.032;4.314;2023-06-26T13:30:03;23.70;1.00
18160;DHT22;9205;52.032;4.314;2023-06-26T13:32:31;23.90;1.00
18160;DHT22;9205;52.032;4.314;2023-06-26T13:34:58;23.50;1.00
18160;DHT22;9205;52.032;4.314;2023-06-26T13:37:27;23.50;1.00
18160;DHT22;9205;52.032;4.314;2023-06-26T13:40:00;23.10;1.00
18160;DHT22;9205;52.032;4.314;2023-06-26T13:42:28;23.20;1.00
18160;DHT22;9205;52.032;4.314;2023-06-26T13:44:55;23.40;1.00
18160;DHT22;9205;52.032;4.314;2023-06-26T13:47:23;23.10;1.00
18160;DHT22;9205;52.032;4.314;2023-06-26T13:49:51;23.00;1.00
18160;DHT22;9205;52.032;4.314;2023-06-26T13:52:19;23.40;1.00
18160;DHT22;9205;52.032;4.314;2023-06-26T13:54:50;23.30;1.00
18160;DHT22;9205;52.032;4.314;2023-06-26T13:57:17;23.40;1.00
18160;DHT22;9205;52.032;4.314;2023-06-26T13:59:45;23.60;1.00
18160;DHT22;9205;52.032;4.314;2023-06-26T14:02:13;23.80;1.00
18160;DHT22;9205;52.032;4.314;2023-06-26T14:04:41;23.90;1.00
18160;DHT22;9205;52.032;4.314;2023-06-26T14:07:09;24.10;1.00
18160;DHT22;9205;52.032;4.314;2023-06-26T14:09:37;24.00;1.00
18160;DHT22;9205;52.032;4.314;2023-06-26T14:12:07;24.10;1.00
18160;DHT22;9205;52.032;4.314;2023-06-26T14:14:35;24.00;1.00
18160;DHT22;9205;52.032;4.314;2023-06-26T14:17:03;23.90;1.00
18160;DHT22;9205;52.032;4.314;2023-06-26T14:19:36;23.90;1.00
18160;DHT22;9205;52.032;4.314;2023-06-26T14:22:04;24.00;1.00
18160;DHT22;9205;52.032;4.314;2023-06-26T14:24:31;24.00;1.00
18160;DHT22;9205;52.032;4.314;2023-06-26T14:26:59;24.00;1.00
18160;DHT22;9205;52.032;4.314;2023-06-26T14:29:27;24.10;1.00
18160;DHT22;9205;52.032;4.314;2023-06-26T14:31:55;24.30;1.00
18160;DHT22;9205;52.032;4.314;2023-06-26T14:34:23;23.90;1.00
18160;DHT22;9205;52.032;4.314;2023-06-26T14:36:51;23.40;1.00
18160;DHT22;9205;52.032;4.314;2023-06-26T14:39:19;23.20;1.00
18160;DHT22;9205;52.032;4.314;2023-06-26T14:41:46;23.20;1.00
18160;DHT22;9205;52.032;4.314;2023-06-26T14:44:14;23.30;1.00
18160;DHT22;9205;52.032;4.314;2023-06-26T14:46:43;23.40;1.00
18160;DHT22;9205;52.032;4.314;2023-06-26T14:49:11;23.20;1.00
18160;DHT22;9205;52.032;4.314;2023-06-26T14:51:38;23.40;1.00
18160;DHT22;9205;52.032;4.314;2023-06-26T14:54:06;23.20;1.00
18160;DHT22;9205;52.032;4.314;2023-06-26T14:56:34;23.40;1.00
18160;DHT22;9205;52.032;4.314;2023-06-26T14:59:02;23.50;1.00
18160;DHT22;9205;52.032;4.314;2023-06-26T15:01:30;23.00;1.00
18160;DHT22;9205;52.032;4.314;2023-06-26T15:03:59;23.20;1.00
18160;DHT22;9205;52.032;4.314;2023-06-26T15:06:27;23.60;1.00
18160;DHT22;9205;52.032;4.314;2023-06-26T15:08:55;23.70;1.00
18160;DHT22;9205;52.032;4.314;2023-06-26T15:11:22;23.70;1.00
18160;DHT22;9205;52.032;4.314;2023-06-26T15:13:53;23.80;1.00
18160;DHT22;9205;52.032;4.314;2023-06-26T15:16:23;23.90;1.00
18160;DHT22;9205;52.032;4.314;2023-06-26T15:18:52;23.60;1.00
18160;DHT22;9205;52.032;4.314;2023-06-26T15:21:21;23.60;1.00
18160;DHT22;9205;52.032;4.314;2023-06-26T15:23:50;23.50;1.00
18160;DHT22;9205;52.032;4.314;2023-06-26T15:26:18;23.40;1.00
18160;DHT22;9205;52.032;4.314;2023-06-26T15:28:46;23.40;1.00
18160;DHT22;9205;52.032;4.314;2023-06-26T15:31:14;23.40;1.00
18160;DHT22;9205;52.032;4.314;2023-06-26T15:33:41;23.50;1.00
18160;DHT22;9205;52.032;4.314;2023-06-26T15:36:09;23.20;1.00
18160;DHT22;9205;52.032;4.314;2023-06-26T15:38:38;23.30;1.00
18160;DHT22;9205;52.032;4.314;2023-06-26T15:41:06;23.10;1.00
18160;DHT22;9205;52.032;4.314;2023-06-26T15:43:34;23.20;1.00
18160;DHT22;9205;52.032;4.314;2023-06-26T15:46:02;23.20;1.00
18160;DHT22;9205;52.032;4.314;2023-06-26T15:48:32;23.20;1.00
18160;DHT22;9205;52.032;4.314;2023-06-26T15:51:00;23.20;1.00
18160;DHT22;9205;52.032;4.314;2023-06-26T15:53:34;23.00;1.00
18160;DHT22;9205;52.032;4.314;2023-06-26T15:56:07;23.10;1.00
18160;DHT22;9205;52.032;4.314;2023-06-26T15:58:36;23.20;1.00
18160;DHT22;9205;52.032;4.314;2023-06-26T16:01:08;23.10;1.00
18160;DHT22;9205;52.032;4.314;2023-06-26T16:03:37;23.10;1.00
18160;DHT22;9205;52.032;4.314;2023-06-26T16:06:09;23.20;1.00
18160;DHT22;9205;52.032;4.314;2023-06-26T16:08:37;22.90;1.00
18160;DHT22;9205;52.032;4.314;2023-06-26T16:11:08;22.60;1.00